createdAt,value
2019-02-28T00:00:07.400Z,37.90
2019-02-28T00:02:34.761Z,37.57
2019-02-28T00:05:05.764Z,37.30
2019-02-28T00:07:30.982Z,33.33
2019-02-28T00:09:58.264Z,41.83
2019-02-28T00:12:25.539Z,35.30
2019-02-28T00:14:52.793Z,37.97
2019-02-28T00:17:20.100Z,40.07
2019-02-28T00:19:47.439Z,39.67
2019-02-28T00:22:15.367Z,39.67
2019-02-28T00:24:42.733Z,36.87
2019-02-28T00:27:09.995Z,59.67
2019-02-28T00:29:37.235Z,48.47
2019-02-28T00:32:04.502Z,44.13
2019-02-28T00:34:31.751Z,49.90
2019-02-28T00:36:59.033Z,51.17
2019-02-28T00:39:26.345Z,44.50
2019-02-28T00:41:53.591Z,62.03
2019-02-28T00:44:20.842Z,76.13
2019-02-28T00:46:48.143Z,69.70
2019-02-28T00:49:15.393Z,49.73
2019-02-28T00:51:42.644Z,44.50
2019-02-28T00:54:09.949Z,39.80
2019-02-28T00:56:37.203Z,46.83
2019-02-28T00:59:04.453Z,81.90
2019-02-28T01:01:31.716Z,92.73
2019-02-28T01:03:59.110Z,102.53
2019-02-28T01:06:26.446Z,94.57
2019-02-28T01:08:56.119Z,71.13
2019-02-28T01:11:22.781Z,66.20
2019-02-28T01:13:50.027Z,90.40
2019-02-28T01:16:19.427Z,93.50
2019-02-28T01:18:46.377Z,88.47
2019-02-28T01:21:13.623Z,73.07
2019-02-28T01:23:40.934Z,54.13
2019-02-28T01:26:08.176Z,55.13
2019-02-28T01:28:35.444Z,50.47
2019-02-28T01:31:02.746Z,62.73
2019-02-28T01:33:29.993Z,98.43
2019-02-28T01:35:57.267Z,105.87
2019-02-28T01:38:25.182Z,77.37
2019-02-28T01:40:52.510Z,57.70
2019-02-28T01:43:19.752Z,73.80
2019-02-28T01:45:47.033Z,119.20
2019-02-28T01:48:14.267Z,91.27
2019-02-28T01:50:41.540Z,95.63
2019-02-28T01:53:08.782Z,83.07
2019-02-28T01:55:36.075Z,103.83
2019-02-28T01:58:03.327Z,106.60
2019-02-28T02:00:30.579Z,92.77
2019-02-28T02:02:57.864Z,98.83
2019-02-28T02:05:25.103Z,101.10
2019-02-28T02:07:52.414Z,108.30
2019-02-28T02:10:21.696Z,75.53
2019-02-28T02:12:50.228Z,90.33
2019-02-28T02:15:17.904Z,47.83
2019-02-28T02:17:45.168Z,56.97
2019-02-28T02:20:13.420Z,66.23
2019-02-28T02:22:44.287Z,96.87
2019-02-28T02:25:10.162Z,100.60
2019-02-28T02:27:37.415Z,115.60
2019-02-28T02:30:13.614Z,102.20
2019-02-28T02:32:38.708Z,99.17
2019-02-28T02:35:08.382Z,87.57
2019-02-28T02:37:35.831Z,67.47
2019-02-28T02:40:07.278Z,95.70
2019-02-28T02:42:34.549Z,110.70
2019-02-28T02:45:05.191Z,121.90
2019-02-28T02:47:32.438Z,97.63
2019-02-28T02:49:59.824Z,125.17
2019-02-28T02:52:30.400Z,125.17
2019-02-28T02:54:56.133Z,82.80
2019-02-28T02:57:23.325Z,74.47
2019-02-28T02:59:50.586Z,64.93
2019-02-28T03:02:17.838Z,69.17
2019-02-28T03:04:45.140Z,56.60
2019-02-28T03:07:12.385Z,84.23
2019-02-28T03:09:43.350Z,75.33
2019-02-28T03:12:08.714Z,69.70
2019-02-28T03:14:35.963Z,84.47
2019-02-28T03:17:09.907Z,73.07
2019-02-28T03:19:33.809Z,78.10
2019-02-28T03:22:01.358Z,102.13
2019-02-28T03:24:28.637Z,88.83
2019-02-28T03:26:55.889Z,89.60
2019-02-28T03:29:23.129Z,100.10
2019-02-28T03:31:56.461Z,125.70
2019-02-28T03:34:19.472Z,117.63
2019-02-28T03:36:55.045Z,122.47
2019-02-28T03:39:15.805Z,106.90
2019-02-28T03:41:43.074Z,120.40
2019-02-28T03:44:10.356Z,125.13
2019-02-28T03:46:37.608Z,123.77
2019-02-28T03:49:10.946Z,114.10
2019-02-28T03:51:33.996Z,112.17
2019-02-28T03:54:01.257Z,119.57
2019-02-28T03:56:28.560Z,121.37
2019-02-28T03:58:55.800Z,103.53
2019-02-28T04:01:23.045Z,122.87
2019-02-28T04:03:50.308Z,102.80
2019-02-28T04:06:17.560Z,116.90
2019-02-28T04:08:44.825Z,118.20
2019-02-28T04:11:12.096Z,107.27
2019-02-28T04:13:39.340Z,135.37
2019-02-28T04:16:09.015Z,141.03
2019-02-28T04:18:35.681Z,124.13
2019-02-28T04:21:02.960Z,113.00
2019-02-28T04:23:35.457Z,100.97
2019-02-28T04:25:59.329Z,78.47
2019-02-28T04:28:26.578Z,105.40
2019-02-28T04:30:54.189Z,93.57
2019-02-28T04:33:21.481Z,111.97
2019-02-28T04:35:48.753Z,126.37
2019-02-28T04:38:20.537Z,134.87
2019-02-28T04:40:45.096Z,129.27
2019-02-28T04:43:12.356Z,145.73
2019-02-28T04:45:39.764Z,156.30
2019-02-28T04:48:07.013Z,117.73
2019-02-28T04:50:34.255Z,141.77
2019-02-28T04:53:01.558Z,113.33
2019-02-28T04:55:30.550Z,161.47
2019-02-28T04:57:57.896Z,135.93
2019-02-28T05:00:25.176Z,124.43
2019-02-28T05:02:54.858Z,134.00
2019-02-28T05:05:21.551Z,170.13
2019-02-28T05:07:49.098Z,164.33
2019-02-28T05:10:19.267Z,134.23
2019-02-28T05:12:45.446Z,120.67
2019-02-28T05:15:13.500Z,148.53
2019-02-28T05:17:40.732Z,174.47
2019-02-28T05:20:10.727Z,166.73
2019-02-28T05:22:38.572Z,150.57
2019-02-28T05:25:07.677Z,166.67
2019-02-28T05:27:35.397Z,170.67
2019-02-28T05:30:17.940Z,157.97
2019-02-28T05:32:41.554Z,167.73
2019-02-28T05:35:08.781Z,148.73
2019-02-28T05:37:36.086Z,163.77
2019-02-28T05:40:07.048Z,120.80
2019-02-28T05:42:34.288Z,109.73
2019-02-28T05:45:01.585Z,165.20
2019-02-28T05:47:29.370Z,175.07
2019-02-28T05:49:57.924Z,138.73
2019-02-28T05:52:25.203Z,103.73
2019-02-28T05:54:52.505Z,128.67
2019-02-28T05:57:19.651Z,166.83
2019-02-28T05:59:46.914Z,145.03
2019-02-28T06:02:14.189Z,125.67
2019-02-28T06:04:41.452Z,186.17
2019-02-28T06:07:09.420Z,149.53
2019-02-28T06:09:36.831Z,196.63
2019-02-28T06:12:06.604Z,175.53
2019-02-28T06:14:33.199Z,167.80
2019-02-28T06:17:00.491Z,161.50
2019-02-28T06:19:27.769Z,157.23
2019-02-28T06:21:56.298Z,147.80
2019-02-28T06:24:24.085Z,149.47
2019-02-28T06:26:51.361Z,168.27
2019-02-28T06:29:18.634Z,156.40
2019-02-28T06:31:48.666Z,147.07
2019-02-28T06:34:15.086Z,133.37
2019-02-28T06:36:42.341Z,104.80
2019-02-28T06:39:09.605Z,113.93
2019-02-28T06:41:39.973Z,114.07
2019-02-28T06:44:05.964Z,110.10
2019-02-28T06:46:33.207Z,106.60
2019-02-28T06:49:05.809Z,106.67
2019-02-28T06:51:29.547Z,281.77
2019-02-28T06:53:56.860Z,212.90
2019-02-28T06:56:24.108Z,114.47
2019-02-28T06:58:51.377Z,190.73
2019-02-28T07:01:19.257Z,219.90
2019-02-28T07:03:53.500Z,147.07
2019-02-28T07:06:16.796Z,149.97
2019-02-28T07:08:44.040Z,130.77
2019-02-28T07:11:11.304Z,132.67
2019-02-28T07:13:39.849Z,135.33
2019-02-28T07:16:07.460Z,143.17
2019-02-28T07:18:34.715Z,140.67
2019-02-28T07:21:02.001Z,140.17
2019-02-28T07:23:30.030Z,132.97
2019-02-28T07:25:58.204Z,128.33
2019-02-28T07:28:25.480Z,129.70
2019-02-28T07:30:52.756Z,144.27
2019-02-28T07:33:20.041Z,155.30
2019-02-28T07:35:47.325Z,147.13
2019-02-28T07:38:14.576Z,147.90
2019-02-28T07:40:41.856Z,145.30
2019-02-28T07:43:12.132Z,154.33
2019-02-28T07:45:38.166Z,145.03
2019-02-28T07:48:05.485Z,142.77
2019-02-28T07:50:32.724Z,150.77
2019-02-28T07:52:59.967Z,141.40
2019-02-28T07:55:30.372Z,147.47
2019-02-28T07:57:56.641Z,153.77
2019-02-28T08:00:24.365Z,146.23
2019-02-28T08:02:51.625Z,152.27
2019-02-28T08:05:19.012Z,142.27
2019-02-28T08:07:50.536Z,137.77
2019-02-28T08:10:27.024Z,149.17
2019-02-28T08:12:58.475Z,152.03
2019-02-28T08:15:27.503Z,143.33
2019-02-28T08:17:54.769Z,139.77
2019-02-28T08:20:21.980Z,142.80
2019-02-28T08:22:49.396Z,144.23
2019-02-28T08:25:16.643Z,128.53
2019-02-28T08:27:43.888Z,137.37
2019-02-28T08:30:19.228Z,124.03
2019-02-28T08:32:47.119Z,131.90
2019-02-28T08:35:14.639Z,134.57
2019-02-28T08:37:41.884Z,127.33
2019-02-28T08:40:20.871Z,135.80
2019-02-28T08:42:49.900Z,128.27
2019-02-28T08:45:17.160Z,125.92
2019-02-28T08:47:44.501Z,124.60
2019-02-28T08:50:20.631Z,123.53
2019-02-28T08:52:48.465Z,122.98
2019-02-28T08:55:15.697Z,126.02
2019-02-28T08:57:42.940Z,117.47
2019-02-28T09:00:13.761Z,109.85
2019-02-28T09:02:41.094Z,109.37
2019-02-28T09:05:08.748Z,115.32
2019-02-28T09:07:41.386Z,117.66
2019-02-28T09:10:22.649Z,102.80
2019-02-28T09:12:50.210Z,96.85
2019-02-28T09:15:18.184Z,92.97
2019-02-28T09:17:45.889Z,106.92
2019-02-28T09:20:16.265Z,95.50
2019-02-28T09:22:43.521Z,91.08
2019-02-28T09:25:13.751Z,90.65
2019-02-28T09:27:41.296Z,85.65
2019-02-28T09:30:26.546Z,82.15
2019-02-28T09:32:52.968Z,85.40
2019-02-28T09:35:20.229Z,78.87
2019-02-28T09:37:47.501Z,83.90
2019-02-28T09:40:14.877Z,81.95
2019-02-28T09:42:44.466Z,76.65
2019-02-28T09:45:20.949Z,115.70
2019-02-28T09:47:48.261Z,91.92
2019-02-28T09:50:19.369Z,81.85
2019-02-28T09:52:46.253Z,91.10
2019-02-28T09:55:13.653Z,81.37
2019-02-28T09:57:40.895Z,80.92
2019-02-28T10:00:14.401Z,92.02
2019-02-28T10:02:43.932Z,81.78
2019-02-28T10:05:11.838Z,75.60
2019-02-28T10:07:39.087Z,99.70
2019-02-28T10:10:13.814Z,79.65
2019-02-28T10:12:43.087Z,77.95
2019-02-28T10:15:15.136Z,75.85
2019-02-28T10:17:42.437Z,83.10
2019-02-28T10:20:16.422Z,94.22
2019-02-28T10:22:44.277Z,76.37
2019-02-28T10:25:13.684Z,74.25
2019-02-28T10:27:40.950Z,69.97
2019-02-28T10:30:15.761Z,77.25
2019-02-28T10:32:43.332Z,70.28
2019-02-28T10:35:09.915Z,72.62
2019-02-28T10:37:37.252Z,63.55
2019-02-28T10:40:08.093Z,66.35
2019-02-28T10:42:37.094Z,80.32
2019-02-28T10:45:07.541Z,64.90
2019-02-28T10:47:34.792Z,74.75
2019-02-28T10:50:02.773Z,70.65
2019-02-28T10:52:30.694Z,70.78
2019-02-28T10:54:57.971Z,67.97
2019-02-28T10:57:25.272Z,62.43
2019-02-28T10:59:55.159Z,70.70
2019-02-28T11:02:21.572Z,58.45
2019-02-28T11:04:48.960Z,57.83
2019-02-28T11:07:16.209Z,54.88
2019-02-28T11:09:43.456Z,66.62
2019-02-28T11:12:10.731Z,46.00
2019-02-28T11:14:38.615Z,53.87
2019-02-28T11:17:13.408Z,66.57
2019-02-28T11:19:35.656Z,62.20
2019-02-28T11:22:04.932Z,58.70
2019-02-28T11:24:32.141Z,76.90
2019-02-28T11:26:59.416Z,52.48
2019-02-28T11:29:26.675Z,55.45
2019-02-28T11:31:54.995Z,55.50
2019-02-28T11:34:22.457Z,55.28
2019-02-28T11:36:49.724Z,58.60
2019-02-28T11:39:18.185Z,50.83
2019-02-28T11:41:45.456Z,51.98
2019-02-28T11:44:12.942Z,49.40
2019-02-28T11:46:40.315Z,45.30
2019-02-28T11:49:07.566Z,52.33
2019-02-28T11:51:34.818Z,50.50
2019-02-28T11:54:02.135Z,45.30
2019-02-28T11:56:29.515Z,62.78
2019-02-28T11:58:56.869Z,42.62
2019-02-28T12:01:24.159Z,59.35
2019-02-28T12:03:51.412Z,34.18
2019-02-28T12:06:18.712Z,43.83
2019-02-28T12:08:45.977Z,55.52
2019-02-28T12:11:13.212Z,43.68
2019-02-28T12:13:40.547Z,43.83
2019-02-28T12:16:07.805Z,39.15
2019-02-28T12:18:39.488Z,37.73
2019-02-28T12:21:04.993Z,33.88
2019-02-28T12:23:32.279Z,32.08
2019-02-28T12:25:59.584Z,32.85
2019-02-28T12:28:26.894Z,50.98
2019-02-28T12:30:54.146Z,47.62
2019-02-28T12:33:23.253Z,34.30
2019-02-28T12:35:50.478Z,36.60
2019-02-28T12:38:17.751Z,39.05
2019-02-28T12:40:45.651Z,31.07
2019-02-28T12:43:14.110Z,30.45
2019-02-28T12:45:45.466Z,30.77
2019-02-28T12:48:13.783Z,41.58
2019-02-28T12:50:41.203Z,34.45
2019-02-28T12:53:08.455Z,28.92
2019-02-28T12:55:39.052Z,23.95
2019-02-28T12:58:04.931Z,26.17
2019-02-28T13:00:35.833Z,27.58
2019-02-28T13:03:03.188Z,31.12
2019-02-28T13:05:30.748Z,28.02
2019-02-28T13:07:58.020Z,30.15
2019-02-28T13:10:27.962Z,22.93
2019-02-28T13:13:05.291Z,27.02
2019-02-28T13:15:24.238Z,32.83
2019-02-28T13:17:51.480Z,30.05
2019-02-28T13:20:21.456Z,21.30
2019-02-28T13:22:48.708Z,34.65
2019-02-28T13:25:19.336Z,22.87
2019-02-28T13:27:46.106Z,23.98
2019-02-28T13:30:24.891Z,23.22
2019-02-28T13:32:52.281Z,17.50
2019-02-28T13:35:22.560Z,26.27
2019-02-28T13:37:49.889Z,32.55
2019-02-28T13:40:17.335Z,29.15
2019-02-28T13:42:44.587Z,36.15
2019-02-28T13:45:19.331Z,22.55
2019-02-28T13:47:46.363Z,18.23
2019-02-28T13:50:18.067Z,17.95
2019-02-28T13:52:45.415Z,14.58
2019-02-28T13:55:14.183Z,26.45
2019-02-28T13:57:43.724Z,14.38
2019-02-28T14:00:23.819Z,12.82
2019-02-28T14:02:55.272Z,15.63
2019-02-28T14:05:23.950Z,17.17
2019-02-28T14:07:51.204Z,17.77
2019-02-28T14:10:19.130Z,14.95
2019-02-28T14:12:46.577Z,13.30
2019-02-28T14:15:25.031Z,10.53
2019-02-28T14:17:52.112Z,12.00
2019-02-28T14:20:19.393Z,14.87
2019-02-28T14:22:46.693Z,8.73
2019-02-28T14:25:14.079Z,11.03
2019-02-28T14:27:41.357Z,15.28
2019-02-28T14:30:13.605Z,16.67
2019-02-28T14:32:42.394Z,11.35
2019-02-28T14:35:15.267Z,10.68
2019-02-28T14:37:42.956Z,9.53
2019-02-28T14:40:14.572Z,21.07
2019-02-28T14:42:43.574Z,19.98
2019-02-28T14:45:19.188Z,11.85
2019-02-28T14:47:56.242Z,12.37
2019-02-28T14:50:18.882Z,13.15
2019-02-28T14:52:45.840Z,21.73
2019-02-28T14:55:15.835Z,23.73
2019-02-28T14:57:43.188Z,15.08
2019-02-28T15:00:16.092Z,18.53
2019-02-28T15:02:43.356Z,17.73
2019-02-28T15:05:12.139Z,17.63
2019-02-28T15:07:39.972Z,17.90
2019-02-28T15:10:10.902Z,12.83
2019-02-28T15:12:39.318Z,16.63
2019-02-28T15:15:10.069Z,13.87
2019-02-28T15:17:38.660Z,13.17
2019-02-28T15:20:07.640Z,14.40
2019-02-28T15:22:34.912Z,14.43
2019-02-28T15:25:04.350Z,18.53
2019-02-28T15:27:31.740Z,15.20
2019-02-28T15:29:59.800Z,17.57
2019-02-28T15:32:27.248Z,17.20
2019-02-28T15:34:54.500Z,16.97
2019-02-28T15:37:21.763Z,26.90
2019-02-28T15:39:49.778Z,18.60
2019-02-28T15:42:17.828Z,40.63
2019-02-28T15:44:45.085Z,21.43
2019-02-28T15:47:12.364Z,16.67
2019-02-28T15:49:41.801Z,36.40
2019-02-28T15:52:08.764Z,22.03
2019-02-28T15:54:36.048Z,41.47
2019-02-28T15:57:03.353Z,57.17
2019-02-28T15:59:30.646Z,66.57
2019-02-28T16:01:57.906Z,66.43
2019-02-28T16:04:26.314Z,34.37
2019-02-28T16:06:57.914Z,20.23
2019-02-28T16:09:23.313Z,28.60
2019-02-28T16:11:50.666Z,20.20
2019-02-28T16:14:18.012Z,18.77
2019-02-28T16:16:45.259Z,19.40
2019-02-28T16:19:12.774Z,16.60
2019-02-28T16:21:40.829Z,47.03
2019-02-28T16:24:08.872Z,67.47
2019-02-28T16:26:36.188Z,55.73
2019-02-28T16:29:03.428Z,30.63
2019-02-28T16:31:30.679Z,22.73
2019-02-28T16:34:07.984Z,22.73
2019-02-28T16:36:29.126Z,23.17
2019-02-28T16:38:56.550Z,22.80
2019-02-28T16:41:23.883Z,29.87
2019-02-28T16:43:52.319Z,33.37
2019-02-28T16:46:20.342Z,28.40
2019-02-28T16:48:47.659Z,28.40
2019-02-28T16:51:14.967Z,27.03
2019-02-28T16:53:42.328Z,45.17
2019-02-28T16:56:09.693Z,31.70
2019-02-28T16:58:37.095Z,30.97
2019-02-28T17:01:04.532Z,37.20
2019-02-28T17:03:31.935Z,21.57
2019-02-28T17:06:01.616Z,23.47
2019-02-28T17:08:30.319Z,26.80
2019-02-28T17:10:57.765Z,31.67
2019-02-28T17:13:29.492Z,30.53
2019-02-28T17:16:02.478Z,32.23
2019-02-28T17:18:35.012Z,39.83
2019-02-28T17:21:02.380Z,35.47
2019-02-28T17:23:29.687Z,25.23
2019-02-28T17:25:57.628Z,32.13
2019-02-28T17:28:35.847Z,33.70
2019-02-28T17:31:21.454Z,37.50
2019-02-28T17:33:48.766Z,52.10
2019-02-28T17:36:16.150Z,36.27
2019-02-28T17:38:43.471Z,34.80
2019-02-28T17:41:11.247Z,37.53
2019-02-28T17:43:38.629Z,34.10
2019-02-28T17:46:14.614Z,42.70
2019-02-28T17:49:03.576Z,35.07
2019-02-28T17:51:40.525Z,38.87
2019-02-28T17:54:28.011Z,40.23
2019-02-28T17:57:01.799Z,40.33
2019-02-28T17:59:41.984Z,35.87
2019-02-28T18:02:21.858Z,32.93
2019-02-28T18:05:07.775Z,31.63
2019-02-28T18:07:38.681Z,38.67
2019-02-28T18:10:15.557Z,47.53
2019-02-28T18:13:10.564Z,46.43
2019-02-28T18:15:42.120Z,43.57
2019-02-28T18:18:20.248Z,41.03
2019-02-28T18:21:10.545Z,39.60
2019-02-28T18:24:04.282Z,42.40
2019-02-28T18:26:39.192Z,42.63
2019-02-28T18:29:21.779Z,47.03
2019-02-28T18:31:49.016Z,47.97
2019-02-28T18:34:17.037Z,53.00
2019-02-28T18:36:45.406Z,51.87
2019-02-28T18:39:12.707Z,52.90
2019-02-28T18:41:42.311Z,64.70
2019-02-28T18:44:09.279Z,61.90
2019-02-28T18:46:36.638Z,47.43
2019-02-28T18:49:04.004Z,61.17
2019-02-28T18:51:31.291Z,52.83
2019-02-28T18:53:58.536Z,53.87
2019-02-28T18:56:25.801Z,49.20
2019-02-28T18:58:53.109Z,39.33
2019-02-28T19:01:20.375Z,46.17
2019-02-28T19:03:47.633Z,44.30
2019-02-28T19:06:14.939Z,43.20
2019-02-28T19:08:42.221Z,55.73
2019-02-28T19:11:09.552Z,57.83
2019-02-28T19:13:37.108Z,43.57
2019-02-28T19:16:04.357Z,41.37
2019-02-28T19:18:31.653Z,43.47
2019-02-28T19:20:58.906Z,43.40
2019-02-28T19:23:26.269Z,39.57
2019-02-28T19:25:53.545Z,40.00
2019-02-28T19:28:21.012Z,46.80
2019-02-28T19:30:48.283Z,37.93
2019-02-28T19:33:15.564Z,46.63
2019-02-28T19:35:42.809Z,44.63
2019-02-28T19:38:10.111Z,55.40
2019-02-28T19:40:37.389Z,48.53
2019-02-28T19:43:04.648Z,50.97
2019-02-28T19:45:39.905Z,43.53
2019-02-28T19:48:07.152Z,50.17
2019-02-28T19:50:34.414Z,54.47
2019-02-28T19:53:01.726Z,47.03
2019-02-28T19:55:29.094Z,48.90
2019-02-28T19:57:56.383Z,45.40
2019-02-28T20:00:23.650Z,53.23
2019-02-28T20:02:50.989Z,52.17
2019-02-28T20:05:18.372Z,56.43
2019-02-28T20:07:45.654Z,63.23
2019-02-28T20:10:16.118Z,56.87
2019-02-28T20:12:43.568Z,45.20
2019-02-28T20:15:13.219Z,49.83
2019-02-28T20:17:40.495Z,51.03
2019-02-28T20:20:11.097Z,49.07
2019-02-28T20:22:38.349Z,55.00
2019-02-28T20:25:10.098Z,51.10
2019-02-28T20:27:37.511Z,53.20
2019-02-28T20:30:10.861Z,47.67
2019-02-28T20:32:38.129Z,52.87
2019-02-28T20:35:06.989Z,49.93
2019-02-28T20:37:34.292Z,62.13
2019-02-28T20:40:01.566Z,54.53
2019-02-28T20:42:28.817Z,62.37
2019-02-28T20:44:56.134Z,58.93
2019-02-28T20:47:23.460Z,67.23
2019-02-28T20:49:50.834Z,74.43
2019-02-28T20:52:18.137Z,62.93
2019-02-28T20:54:45.382Z,58.97
2019-02-28T20:57:13.104Z,63.03
2019-02-28T20:59:40.396Z,64.43
2019-02-28T21:02:07.643Z,72.97
2019-02-28T21:04:36.277Z,69.70
2019-02-28T21:07:03.678Z,70.27
2019-02-28T21:09:31.014Z,75.53
2019-02-28T21:11:58.331Z,66.07
2019-02-28T21:14:25.644Z,75.53
2019-02-28T21:16:52.956Z,66.17
2019-02-28T21:19:20.355Z,71.63
2019-02-28T21:21:47.619Z,73.30
2019-02-28T21:24:14.880Z,67.63
2019-02-28T21:26:42.168Z,73.87
2019-02-28T21:29:09.412Z,70.20
2019-02-28T21:31:36.661Z,78.83
2019-02-28T21:34:03.980Z,63.97
2019-02-28T21:36:31.535Z,69.73
2019-02-28T21:38:58.780Z,71.13
2019-02-28T21:41:26.044Z,57.47
2019-02-28T21:43:53.340Z,68.13
2019-02-28T21:46:20.625Z,70.97
2019-02-28T21:48:47.891Z,76.23
2019-02-28T21:51:15.331Z,74.23
2019-02-28T21:53:42.590Z,73.60
2019-02-28T21:56:09.836Z,85.07
2019-02-28T21:58:37.173Z,75.80
2019-02-28T22:01:04.489Z,74.23
2019-02-28T22:03:31.767Z,74.93
2019-02-28T22:05:59.047Z,71.87
2019-02-28T22:08:26.301Z,67.77
2019-02-28T22:10:53.617Z,77.47
2019-02-28T22:13:20.901Z,79.37
2019-02-28T22:15:48.165Z,76.10
2019-02-28T22:18:15.946Z,78.47
2019-02-28T22:20:43.192Z,72.00
2019-02-28T22:23:10.445Z,81.90
2019-02-28T22:25:37.740Z,74.97
2019-02-28T22:28:05.236Z,74.73
2019-02-28T22:30:43.266Z,80.40
2019-02-28T22:33:28.712Z,84.93
2019-02-28T22:36:00.591Z,74.27
2019-02-28T22:38:27.845Z,70.10
2019-02-28T22:40:55.116Z,60.83
2019-02-28T22:43:22.405Z,70.63
2019-02-28T22:45:49.664Z,68.37
2019-02-28T22:48:16.932Z,67.07
2019-02-28T22:50:44.324Z,69.40
2019-02-28T22:53:11.584Z,64.33
2019-02-28T22:55:38.847Z,70.87
2019-02-28T22:58:07.666Z,65.50
2019-02-28T23:00:43.042Z,57.87
2019-02-28T23:03:10.330Z,66.30
2019-02-28T23:05:37.585Z,55.47
2019-02-28T23:08:04.839Z,49.10
2019-02-28T23:10:32.209Z,58.97
2019-02-28T23:12:59.483Z,55.43
2019-02-28T23:15:26.732Z,53.00
2019-02-28T23:17:54.018Z,65.90
2019-02-28T23:20:21.291Z,63.03
2019-02-28T23:22:48.573Z,51.53
2019-02-28T23:25:15.833Z,54.37
2019-02-28T23:27:43.121Z,59.13
2019-02-28T23:30:50.146Z,54.53
2019-02-28T23:33:17.488Z,57.90
2019-02-28T23:35:44.764Z,53.63
2019-02-28T23:38:12.017Z,53.43
2019-02-28T23:40:39.334Z,57.70
2019-02-28T23:43:06.593Z,49.60
2019-02-28T23:45:33.850Z,50.37
2019-02-28T23:48:01.159Z,57.07
2019-02-28T23:50:28.420Z,45.90
2019-02-28T23:52:55.676Z,50.80
2019-02-28T23:55:23.049Z,52.97
2019-02-28T23:57:50.324Z,52.70
